sensor_id;sensor_type;location;lat;lon;timestamp;temperature;humidity
254;DHT22;590;48.772;8.846;2022-07-12T00:00:37;15.60;64.00
254;DHT22;590;48.772;8.846;2022-07-12T00:03:05;15.50;64.30
254;DHT22;590;48.772;8.846;2022-07-12T00:05:33;15.40;64.70
254;DHT22;590;48.772;8.846;2022-07-12T00:08:03;15.30;64.50
254;DHT22;590;48.772;8.846;2022-07-12T00:10:33;15.30;65.70
254;DHT22;590;48.772;8.846;2022-07-12T00:13:01;15.30;66.00
254;DHT22;590;48.772;8.846;2022-07-12T00:15:29;15.20;66.30
254;DHT22;590;48.772;8.846;2022-07-12T00:17:57;15.20;66.60
254;DHT22;590;48.772;8.846;2022-07-12T00:20:25;15.20;66.70
254;DHT22;590;48.772;8.846;2022-07-12T00:22:54;15.20;67.10
254;DHT22;590;48.772;8.846;2022-07-12T00:25:23;15.20;67.20
254;DHT22;590;48.772;8.846;2022-07-12T00:27:52;15.20;67.30
254;DHT22;590;48.772;8.846;2022-07-12T00:30:20;15.10;66.90
254;DHT22;590;48.772;8.846;2022-07-12T00:32:48;15.00;66.80
254;DHT22;590;48.772;8.846;2022-07-12T00:35:17;15.00;67.20
254;DHT22;590;48.772;8.846;2022-07-12T00:37:45;15.00;67.70
254;DHT22;590;48.772;8.846;2022-07-12T00:40:13;14.80;67.30
254;DHT22;590;48.772;8.846;2022-07-12T00:42:42;14.80;68.50
254;DHT22;590;48.772;8.846;2022-07-12T00:45:10;14.70;68.90
254;DHT22;590;48.772;8.846;2022-07-12T00:47:41;14.70;69.80
254;DHT22;590;48.772;8.846;2022-07-12T00:50:12;14.70;70.50
254;DHT22;590;48.772;8.846;2022-07-12T00:52:42;14.70;70.80
254;DHT22;590;48.772;8.846;2022-07-12T00:55:12;14.70;71.10
254;DHT22;590;48.772;8.846;2022-07-12T00:57:42;14.60;71.30
254;DHT22;590;48.772;8.846;2022-07-12T01:00:13;14.70;71.80
254;DHT22;590;48.772;8.846;2022-07-12T01:02:43;14.70;71.60
254;DHT22;590;48.772;8.846;2022-07-12T01:05:12;14.70;72.10
254;DHT22;590;48.772;8.846;2022-07-12T01:07:40;14.60;71.90
254;DHT22;590;48.772;8.846;2022-07-12T01:10:09;14.60;71.50
254;DHT22;590;48.772;8.846;2022-07-12T01:12:37;14.60;71.60
254;DHT22;590;48.772;8.846;2022-07-12T01:15:08;14.50;71.50
254;DHT22;590;48.772;8.846;2022-07-12T01:17:36;14.50;71.10
254;DHT22;590;48.772;8.846;2022-07-12T01:20:06;14.50;71.40
254;DHT22;590;48.772;8.846;2022-07-12T01:22:36;14.50;70.20
254;DHT22;590;48.772;8.846;2022-07-12T01:25:09;14.40;69.60
254;DHT22;590;48.772;8.846;2022-07-12T01:27:37;14.30;69.50
254;DHT22;590;48.772;8.846;2022-07-12T01:30:06;14.20;70.00
254;DHT22;590;48.772;8.846;2022-07-12T01:32:35;14.20;70.40
254;DHT22;590;48.772;8.846;2022-07-12T01:35:05;14.10;70.70
254;DHT22;590;48.772;8.846;2022-07-12T01:37:34;14.10;71.30
254;DHT22;590;48.772;8.846;2022-07-12T01:40:04;14.10;72.20
254;DHT22;590;48.772;8.846;2022-07-12T01:42:34;14.10;72.40
254;DHT22;590;48.772;8.846;2022-07-12T01:45:03;14.10;72.00
254;DHT22;590;48.772;8.846;2022-07-12T01:47:31;14.10;72.50
254;DHT22;590;48.772;8.846;2022-07-12T01:49:59;14.10;72.10
254;DHT22;590;48.772;8.846;2022-07-12T01:52:28;14.00;72.60
254;DHT22;590;48.772;8.846;2022-07-12T01:54:57;14.00;72.90
254;DHT22;590;48.772;8.846;2022-07-12T01:57:25;14.00;73.80
254;DHT22;590;48.772;8.846;2022-07-12T01:59:55;14.00;73.40
254;DHT22;590;48.772;8.846;2022-07-12T02:02:25;14.10;73.10
254;DHT22;590;48.772;8.846;2022-07-12T02:04:54;14.00;72.70
254;DHT22;590;48.772;8.846;2022-07-12T02:07:23;14.00;72.60
254;DHT22;590;48.772;8.846;2022-07-12T02:09:52;13.90;73.20
254;DHT22;590;48.772;8.846;2022-07-12T02:12:20;13.90;73.80
254;DHT22;590;48.772;8.846;2022-07-12T02:14:48;13.90;74.50
254;DHT22;590;48.772;8.846;2022-07-12T02:17:18;14.00;75.40
254;DHT22;590;48.772;8.846;2022-07-12T02:19:46;14.00;74.90
254;DHT22;590;48.772;8.846;2022-07-12T02:22:14;14.00;74.40
254;DHT22;590;48.772;8.846;2022-07-12T02:24:42;13.90;74.10
254;DHT22;590;48.772;8.846;2022-07-12T02:27:10;13.90;74.20
254;DHT22;590;48.772;8.846;2022-07-12T02:29:38;13.80;74.00
254;DHT22;590;48.772;8.846;2022-07-12T02:32:08;13.80;74.20
254;DHT22;590;48.772;8.846;2022-07-12T02:34:37;13.80;74.00
254;DHT22;590;48.772;8.846;2022-07-12T02:37:05;13.80;74.20
254;DHT22;590;48.772;8.846;2022-07-12T02:39:33;13.80;74.40
254;DHT22;590;48.772;8.846;2022-07-12T02:42:01;13.80;75.00
254;DHT22;590;48.772;8.846;2022-07-12T02:44:29;13.80;75.40
254;DHT22;590;48.772;8.846;2022-07-12T02:46:59;13.80;75.20
254;DHT22;590;48.772;8.846;2022-07-12T02:49:27;13.80;75.20
254;DHT22;590;48.772;8.846;2022-07-12T02:51:56;13.80;74.30
254;DHT22;590;48.772;8.846;2022-07-12T02:54:25;13.70;74.00
254;DHT22;590;48.772;8.846;2022-07-12T02:56:52;13.60;73.30
254;DHT22;590;48.772;8.846;2022-07-12T02:59:20;13.50;74.00
254;DHT22;590;48.772;8.846;2022-07-12T03:01:48;13.40;74.70
254;DHT22;590;48.772;8.846;2022-07-12T03:04:17;13.40;75.90
254;DHT22;590;48.772;8.846;2022-07-12T03:06:45;13.30;76.30
254;DHT22;590;48.772;8.846;2022-07-12T03:09:14;13.30;77.90
254;DHT22;590;48.772;8.846;2022-07-12T03:11:42;13.30;77.80
254;DHT22;590;48.772;8.846;2022-07-12T03:14:10;13.30;77.90
254;DHT22;590;48.772;8.846;2022-07-12T03:16:38;13.30;78.00
254;DHT22;590;48.772;8.846;2022-07-12T03:19:06;13.30;78.00
254;DHT22;590;48.772;8.846;2022-07-12T03:21:34;13.40;77.80
254;DHT22;590;48.772;8.846;2022-07-12T03:24:02;13.30;77.70
254;DHT22;590;48.772;8.846;2022-07-12T03:26:31;13.30;77.60
254;DHT22;590;48.772;8.846;2022-07-12T03:28:59;13.40;76.80
254;DHT22;590;48.772;8.846;2022-07-12T03:31:27;13.30;76.90
254;DHT22;590;48.772;8.846;2022-07-12T03:33:56;13.30;77.10
254;DHT22;590;48.772;8.846;2022-07-12T03:36:24;13.30;76.90
254;DHT22;590;48.772;8.846;2022-07-12T03:38:51;13.30;77.10
254;DHT22;590;48.772;8.846;2022-07-12T03:41:20;13.40;77.50
254;DHT22;590;48.772;8.846;2022-07-12T03:43:49;13.50;77.10
254;DHT22;590;48.772;8.846;2022-07-12T03:46:17;13.50;76.40
254;DHT22;590;48.772;8.846;2022-07-12T03:48:45;13.50;76.10
254;DHT22;590;48.772;8.846;2022-07-12T03:51:13;13.50;75.90
254;DHT22;590;48.772;8.846;2022-07-12T03:53:41;13.50;75.90
254;DHT22;590;48.772;8.846;2022-07-12T03:56:09;13.50;75.60
254;DHT22;590;48.772;8.846;2022-07-12T03:58:59;13.50;75.80
254;DHT22;590;48.772;8.846;2022-07-12T04:01:27;13.50;75.90
254;DHT22;590;48.772;8.846;2022-07-12T04:03:56;13.50;75.80
254;DHT22;590;48.772;8.846;2022-07-12T04:06:24;13.50;75.40
254;DHT22;590;48.772;8.846;2022-07-12T04:08:52;13.60;75.00
254;DHT22;590;48.772;8.846;2022-07-12T04:11:20;13.70;74.80
254;DHT22;590;48.772;8.846;2022-07-12T04:13:48;13.70;74.90
254;DHT22;590;48.772;8.846;2022-07-12T04:16:17;13.80;75.20
254;DHT22;590;48.772;8.846;2022-07-12T04:18:45;14.00;74.60
254;DHT22;590;48.772;8.846;2022-07-12T04:21:13;14.10;73.80
254;DHT22;590;48.772;8.846;2022-07-12T04:23:42;14.20;72.90
254;DHT22;590;48.772;8.846;2022-07-12T04:26:10;14.30;72.70
254;DHT22;590;48.772;8.846;2022-07-12T04:28:38;14.50;71.60
254;DHT22;590;48.772;8.846;2022-07-12T04:31:06;14.70;69.80
254;DHT22;590;48.772;8.846;2022-07-12T04:33:36;14.80;69.00
254;DHT22;590;48.772;8.846;2022-07-12T04:36:04;15.00;68.10
254;DHT22;590;48.772;8.846;2022-07-12T04:38:32;15.50;69.10
254;DHT22;590;48.772;8.846;2022-07-12T04:41:00;17.00;62.50
254;DHT22;590;48.772;8.846;2022-07-12T04:43:28;19.00;48.60
254;DHT22;590;48.772;8.846;2022-07-12T04:46:04;21.00;32.70
254;DHT22;590;48.772;8.846;2022-07-12T04:48:32;22.80;23.20
254;DHT22;590;48.772;8.846;2022-07-12T04:51:02;24.50;17.00
254;DHT22;590;48.772;8.846;2022-07-12T04:53:30;25.90;12.60
254;DHT22;590;48.772;8.846;2022-07-12T04:55:58;26.80;10.00
254;DHT22;590;48.772;8.846;2022-07-12T04:58:26;27.30;8.80
254;DHT22;590;48.772;8.846;2022-07-12T05:00:54;27.90;7.60
254;DHT22;590;48.772;8.846;2022-07-12T05:03:22;28.90;6.00
254;DHT22;590;48.772;8.846;2022-07-12T05:05:53;29.60;3.70
254;DHT22;590;48.772;8.846;2022-07-12T05:08:23;30.20;2.80
254;DHT22;590;48.772;8.846;2022-07-12T05:10:51;30.60;2.30
254;DHT22;590;48.772;8.846;2022-07-12T05:13:20;30.80;1.90
254;DHT22;590;48.772;8.846;2022-07-12T05:15:48;30.40;2.30
254;DHT22;590;48.772;8.846;2022-07-12T05:18:16;30.20;2.20
254;DHT22;590;48.772;8.846;2022-07-12T05:20:44;30.60;1.80
254;DHT22;590;48.772;8.846;2022-07-12T05:23:18;30.80;1.80
254;DHT22;590;48.772;8.846;2022-07-12T05:25:47;30.60;1.90
254;DHT22;590;48.772;8.846;2022-07-12T05:28:15;30.50;2.20
254;DHT22;590;48.772;8.846;2022-07-12T05:30:43;30.50;1.90
254;DHT22;590;48.772;8.846;2022-07-12T05:33:11;30.30;2.30
254;DHT22;590;48.772;8.846;2022-07-12T05:35:40;29.60;3.10
254;DHT22;590;48.772;8.846;2022-07-12T05:38:08;28.70;4.50
254;DHT22;590;48.772;8.846;2022-07-12T05:40:36;28.10;5.50
254;DHT22;590;48.772;8.846;2022-07-12T05:43:05;27.40;6.70
254;DHT22;590;48.772;8.846;2022-07-12T05:45:33;26.90;7.60
254;DHT22;590;48.772;8.846;2022-07-12T05:48:01;26.50;8.30
254;DHT22;590;48.772;8.846;2022-07-12T05:50:29;26.10;8.90
254;DHT22;590;48.772;8.846;2022-07-12T05:52:57;25.90;10.60
254;DHT22;590;48.772;8.846;2022-07-12T05:55:43;25.80;10.90
254;DHT22;590;48.772;8.846;2022-07-12T05:58:13;25.60;11.00
254;DHT22;590;48.772;8.846;2022-07-12T06:00:40;25.40;12.40
254;DHT22;590;48.772;8.846;2022-07-12T06:03:09;25.40;12.60
254;DHT22;590;48.772;8.846;2022-07-12T06:05:37;25.40;13.30
254;DHT22;590;48.772;8.846;2022-07-12T06:08:05;25.50;11.90
254;DHT22;590;48.772;8.846;2022-07-12T06:10:34;25.70;12.40
254;DHT22;590;48.772;8.846;2022-07-12T06:13:02;25.70;12.00
254;DHT22;590;48.772;8.846;2022-07-12T06:15:32;25.90;12.40
254;DHT22;590;48.772;8.846;2022-07-12T06:18:01;26.10;11.50
254;DHT22;590;48.772;8.846;2022-07-12T06:20:30;26.40;11.20
254;DHT22;590;48.772;8.846;2022-07-12T06:22:58;26.70;11.30
254;DHT22;590;48.772;8.846;2022-07-12T06:25:26;27.00;10.20
254;DHT22;590;48.772;8.846;2022-07-12T06:28:11;27.40;9.80
254;DHT22;590;48.772;8.846;2022-07-12T06:30:40;27.80;9.30
254;DHT22;590;48.772;8.846;2022-07-12T06:33:08;28.10;8.70
254;DHT22;590;48.772;8.846;2022-07-12T06:35:36;28.20;7.20
254;DHT22;590;48.772;8.846;2022-07-12T06:38:04;28.40;7.00
254;DHT22;590;48.772;8.846;2022-07-12T06:40:32;28.50;6.60
254;DHT22;590;48.772;8.846;2022-07-12T06:43:01;28.50;7.20
254;DHT22;590;48.772;8.846;2022-07-12T06:45:29;28.90;6.70
254;DHT22;590;48.772;8.846;2022-07-12T06:47:58;29.20;6.20
254;DHT22;590;48.772;8.846;2022-07-12T06:50:26;29.50;5.30
254;DHT22;590;48.772;8.846;2022-07-12T06:52:54;29.70;4.70
254;DHT22;590;48.772;8.846;2022-07-12T06:55:23;29.90;5.00
254;DHT22;590;48.772;8.846;2022-07-12T06:57:51;30.20;3.80
254;DHT22;590;48.772;8.846;2022-07-12T07:00:19;30.20;3.10
254;DHT22;590;48.772;8.846;2022-07-12T07:02:47;30.50;3.30
254;DHT22;590;48.772;8.846;2022-07-12T07:05:18;30.80;2.70
254;DHT22;590;48.772;8.846;2022-07-12T07:07:46;30.90;2.10
254;DHT22;590;48.772;8.846;2022-07-12T07:10:14;31.10;2.40
254;DHT22;590;48.772;8.846;2022-07-12T07:12:42;31.50;1.40
254;DHT22;590;48.772;8.846;2022-07-12T07:15:10;31.60;1.00
254;DHT22;590;48.772;8.846;2022-07-12T07:17:40;31.90;1.00
254;DHT22;590;48.772;8.846;2022-07-12T07:20:09;32.20;1.00
254;DHT22;590;48.772;8.846;2022-07-12T07:22:39;32.30;1.00
254;DHT22;590;48.772;8.846;2022-07-12T07:25:07;32.00;1.00
254;DHT22;590;48.772;8.846;2022-07-12T07:27:36;31.60;1.00
254;DHT22;590;48.772;8.846;2022-07-12T07:30:06;31.70;1.00
254;DHT22;590;48.772;8.846;2022-07-12T07:32:52;32.00;1.00
254;DHT22;590;48.772;8.846;2022-07-12T07:35:22;32.10;1.00
254;DHT22;590;48.772;8.846;2022-07-12T07:37:51;32.30;1.00
254;DHT22;590;48.772;8.846;2022-07-12T07:40:20;32.40;1.00
254;DHT22;590;48.772;8.846;2022-07-12T07:42:48;32.30;1.00
254;DHT22;590;48.772;8.846;2022-07-12T07:45:17;32.60;1.00
254;DHT22;590;48.772;8.846;2022-07-12T07:47:46;32.90;1.00
254;DHT22;590;48.772;8.846;2022-07-12T07:50:35;32.90;1.00
254;DHT22;590;48.772;8.846;2022-07-12T07:53:05;32.80;1.00
254;DHT22;590;48.772;8.846;2022-07-12T07:55:33;32.20;1.00
254;DHT22;590;48.772;8.846;2022-07-12T07:58:01;32.10;1.00
254;DHT22;590;48.772;8.846;2022-07-12T08:00:29;31.80;1.00
254;DHT22;590;48.772;8.846;2022-07-12T08:02:57;31.60;1.00
254;DHT22;590;48.772;8.846;2022-07-12T08:05:25;31.20;1.00
254;DHT22;590;48.772;8.846;2022-07-12T08:07:55;30.90;1.00
254;DHT22;590;48.772;8.846;2022-07-12T08:10:25;30.80;1.00
254;DHT22;590;48.772;8.846;2022-07-12T08:12:53;30.30;1.50
254;DHT22;590;48.772;8.846;2022-07-12T08:15:22;29.90;1.40
254;DHT22;590;48.772;8.846;2022-07-12T08:17:50;29.50;1.70
254;DHT22;590;48.772;8.846;2022-07-12T08:20:21;29.40;1.90
254;DHT22;590;48.772;8.846;2022-07-12T08:23:10;29.20;1.50
254;DHT22;590;48.772;8.846;2022-07-12T08:25:39;28.50;2.40
254;DHT22;590;48.772;8.846;2022-07-12T08:28:07;28.00;3.10
254;DHT22;590;48.772;8.846;2022-07-12T08:30:36;28.00;4.00
254;DHT22;590;48.772;8.846;2022-07-12T08:33:11;27.80;4.00
254;DHT22;590;48.772;8.846;2022-07-12T08:35:39;27.40;5.00
254;DHT22;590;48.772;8.846;2022-07-12T08:38:08;27.10;5.50
254;DHT22;590;48.772;8.846;2022-07-12T08:40:36;27.30;4.90
254;DHT22;590;48.772;8.846;2022-07-12T08:43:06;27.90;5.00
254;DHT22;590;48.772;8.846;2022-07-12T08:45:34;28.20;4.10
254;DHT22;590;48.772;8.846;2022-07-12T08:48:02;28.90;4.40
254;DHT22;590;48.772;8.846;2022-07-12T08:50:30;29.60;2.90
254;DHT22;590;48.772;8.846;2022-07-12T08:52:58;30.00;1.30
254;DHT22;590;48.772;8.846;2022-07-12T08:55:28;30.40;1.40
254;DHT22;590;48.772;8.846;2022-07-12T08:57:58;30.50;1.00
254;DHT22;590;48.772;8.846;2022-07-12T09:00:29;30.30;1.00
254;DHT22;590;48.772;8.846;2022-07-12T09:02:58;29.40;1.60
254;DHT22;590;48.772;8.846;2022-07-12T09:05:27;29.10;2.30
254;DHT22;590;48.772;8.846;2022-07-12T09:08:02;28.80;2.80
254;DHT22;590;48.772;8.846;2022-07-12T09:10:31;28.80;2.20
254;DHT22;590;48.772;8.846;2022-07-12T09:12:59;28.80;2.60
254;DHT22;590;48.772;8.846;2022-07-12T09:15:29;28.30;3.10
254;DHT22;590;48.772;8.846;2022-07-12T09:17:59;27.70;4.10
254;DHT22;590;48.772;8.846;2022-07-12T09:20:30;27.30;4.90
254;DHT22;590;48.772;8.846;2022-07-12T09:23:00;27.50;4.30
254;DHT22;590;48.772;8.846;2022-07-12T09:25:28;27.90;3.70
254;DHT22;590;48.772;8.846;2022-07-12T09:27:57;28.30;2.90
254;DHT22;590;48.772;8.846;2022-07-12T09:30:27;28.80;3.60
254;DHT22;590;48.772;8.846;2022-07-12T09:33:01;29.20;2.20
254;DHT22;590;48.772;8.846;2022-07-12T09:36:00;29.00;1.40
254;DHT22;590;48.772;8.846;2022-07-12T09:38:36;28.40;1.70
254;DHT22;590;48.772;8.846;2022-07-12T09:41:04;27.70;3.30
254;DHT22;590;48.772;8.846;2022-07-12T09:43:33;27.40;4.30
254;DHT22;590;48.772;8.846;2022-07-12T09:46:02;27.70;4.10
254;DHT22;590;48.772;8.846;2022-07-12T09:48:33;28.20;3.40
254;DHT22;590;48.772;8.846;2022-07-12T09:51:02;28.80;2.80
254;DHT22;590;48.772;8.846;2022-07-12T09:53:32;28.60;2.70
254;DHT22;590;48.772;8.846;2022-07-12T09:56:04;28.80;3.30
254;DHT22;590;48.772;8.846;2022-07-12T09:58:39;29.00;2.70
254;DHT22;590;48.772;8.846;2022-07-12T10:01:08;29.20;2.00
254;DHT22;590;48.772;8.846;2022-07-12T10:03:45;29.30;1.90
254;DHT22;590;48.772;8.846;2022-07-12T10:06:16;28.60;2.70
254;DHT22;590;48.772;8.846;2022-07-12T10:08:48;28.00;3.50
254;DHT22;590;48.772;8.846;2022-07-12T10:11:17;27.90;4.20
254;DHT22;590;48.772;8.846;2022-07-12T10:14:07;28.00;4.30
254;DHT22;590;48.772;8.846;2022-07-12T10:16:38;28.00;3.50
254;DHT22;590;48.772;8.846;2022-07-12T10:19:25;27.90;3.60
254;DHT22;590;48.772;8.846;2022-07-12T10:21:55;27.80;3.50
254;DHT22;590;48.772;8.846;2022-07-12T10:24:46;27.80;3.70
254;DHT22;590;48.772;8.846;2022-07-12T10:27:32;27.80;4.20
254;DHT22;590;48.772;8.846;2022-07-12T10:30:18;28.20;5.20
254;DHT22;590;48.772;8.846;2022-07-12T10:32:48;28.80;4.50
254;DHT22;590;48.772;8.846;2022-07-12T10:35:19;29.00;3.70
254;DHT22;590;48.772;8.846;2022-07-12T10:38:18;29.00;2.90
254;DHT22;590;48.772;8.846;2022-07-12T10:40:48;28.60;1.80
254;DHT22;590;48.772;8.846;2022-07-12T10:43:37;27.90;2.00
254;DHT22;590;48.772;8.846;2022-07-12T10:46:23;27.70;3.00
254;DHT22;590;48.772;8.846;2022-07-12T10:49:24;27.50;3.40
254;DHT22;590;48.772;8.846;2022-07-12T10:52:16;27.40;4.20
254;DHT22;590;48.772;8.846;2022-07-12T10:57:40;27.30;5.10
254;DHT22;590;48.772;8.846;2022-07-12T11:00:11;27.10;5.50
254;DHT22;590;48.772;8.846;2022-07-12T11:02:39;27.00;4.40
254;DHT22;590;48.772;8.846;2022-07-12T11:05:08;26.80;4.40
254;DHT22;590;48.772;8.846;2022-07-12T11:07:37;26.80;4.80
254;DHT22;590;48.772;8.846;2022-07-12T11:10:06;26.80;4.80
254;DHT22;590;48.772;8.846;2022-07-12T11:12:34;26.70;5.30
254;DHT22;590;48.772;8.846;2022-07-12T11:15:03;26.90;6.20
254;DHT22;590;48.772;8.846;2022-07-12T11:17:33;27.10;5.10
254;DHT22;590;48.772;8.846;2022-07-12T11:20:08;27.30;4.60
254;DHT22;590;48.772;8.846;2022-07-12T11:22:40;27.40;3.60
254;DHT22;590;48.772;8.846;2022-07-12T11:25:09;27.30;4.90
254;DHT22;590;48.772;8.846;2022-07-12T11:27:38;27.30;3.90
254;DHT22;590;48.772;8.846;2022-07-12T11:30:08;27.50;5.10
254;DHT22;590;48.772;8.846;2022-07-12T11:32:38;27.70;4.40
254;DHT22;590;48.772;8.846;2022-07-12T11:35:19;27.90;5.00
254;DHT22;590;48.772;8.846;2022-07-12T11:37:50;28.20;3.40
254;DHT22;590;48.772;8.846;2022-07-12T11:40:25;28.30;2.70
254;DHT22;590;48.772;8.846;2022-07-12T11:42:55;28.30;2.10
254;DHT22;590;48.772;8.846;2022-07-12T11:45:26;28.30;2.30
254;DHT22;590;48.772;8.846;2022-07-12T11:47:55;28.30;1.90
254;DHT22;590;48.772;8.846;2022-07-12T11:50:24;28.30;3.40
254;DHT22;590;48.772;8.846;2022-07-12T11:53:02;28.30;3.30
254;DHT22;590;48.772;8.846;2022-07-12T11:55:31;28.20;2.60
254;DHT22;590;48.772;8.846;2022-07-12T11:58:05;28.00;2.10
254;DHT22;590;48.772;8.846;2022-07-12T12:00:33;27.80;2.60
254;DHT22;590;48.772;8.846;2022-07-12T12:03:01;27.70;3.60
254;DHT22;590;48.772;8.846;2022-07-12T12:05:30;27.70;3.50
254;DHT22;590;48.772;8.846;2022-07-12T12:07:58;27.70;3.20
254;DHT22;590;48.772;8.846;2022-07-12T12:10:29;27.90;3.80
254;DHT22;590;48.772;8.846;2022-07-12T12:12:59;28.10;3.60
254;DHT22;590;48.772;8.846;2022-07-12T12:15:29;28.20;2.70
254;DHT22;590;48.772;8.846;2022-07-12T12:17:59;28.30;2.30
254;DHT22;590;48.772;8.846;2022-07-12T12:20:30;28.30;1.80
254;DHT22;590;48.772;8.846;2022-07-12T12:22:58;28.30;2.30
254;DHT22;590;48.772;8.846;2022-07-12T12:25:29;28.30;2.90
254;DHT22;590;48.772;8.846;2022-07-12T12:27:59;28.30;2.50
254;DHT22;590;48.772;8.846;2022-07-12T12:30:49;28.40;2.80
254;DHT22;590;48.772;8.846;2022-07-12T12:33:33;28.20;2.20
254;DHT22;590;48.772;8.846;2022-07-12T12:36:12;28.10;2.80
254;DHT22;590;48.772;8.846;2022-07-12T12:38:41;28.00;2.20
254;DHT22;590;48.772;8.846;2022-07-12T12:41:11;28.00;2.30
254;DHT22;590;48.772;8.846;2022-07-12T12:43:40;28.10;2.30
254;DHT22;590;48.772;8.846;2022-07-12T12:46:08;28.10;1.80
254;DHT22;590;48.772;8.846;2022-07-12T12:48:36;28.10;1.60
254;DHT22;590;48.772;8.846;2022-07-12T12:51:06;27.70;1.80
254;DHT22;590;48.772;8.846;2022-07-12T12:53:35;27.50;1.90
254;DHT22;590;48.772;8.846;2022-07-12T12:56:08;27.50;2.70
254;DHT22;590;48.772;8.846;2022-07-12T12:58:38;27.60;2.50
254;DHT22;590;48.772;8.846;2022-07-12T13:01:07;27.70;2.40
254;DHT22;590;48.772;8.846;2022-07-12T13:03:35;27.90;2.70
254;DHT22;590;48.772;8.846;2022-07-12T13:06:04;28.10;2.30
254;DHT22;590;48.772;8.846;2022-07-12T13:08:32;28.20;1.60
254;DHT22;590;48.772;8.846;2022-07-12T13:11:00;28.30;2.60
254;DHT22;590;48.772;8.846;2022-07-12T13:13:50;28.20;3.10
254;DHT22;590;48.772;8.846;2022-07-12T13:16:20;28.20;2.50
254;DHT22;590;48.772;8.846;2022-07-12T13:18:48;28.10;2.80
254;DHT22;590;48.772;8.846;2022-07-12T13:21:16;28.10;2.60
254;DHT22;590;48.772;8.846;2022-07-12T13:23:45;28.00;1.90
254;DHT22;590;48.772;8.846;2022-07-12T13:26:13;28.00;1.20
254;DHT22;590;48.772;8.846;2022-07-12T13:28:41;27.90;1.80
254;DHT22;590;48.772;8.846;2022-07-12T13:31:10;27.80;2.00
254;DHT22;590;48.772;8.846;2022-07-12T13:33:38;27.70;2.50
254;DHT22;590;48.772;8.846;2022-07-12T13:36:07;27.70;2.30
254;DHT22;590;48.772;8.846;2022-07-12T13:38:35;27.50;3.00
254;DHT22;590;48.772;8.846;2022-07-12T13:41:03;27.40;2.70
254;DHT22;590;48.772;8.846;2022-07-12T13:43:31;27.40;2.30
254;DHT22;590;48.772;8.846;2022-07-12T13:46:00;27.30;2.90
254;DHT22;590;48.772;8.846;2022-07-12T13:48:29;27.50;3.50
254;DHT22;590;48.772;8.846;2022-07-12T13:50:57;27.70;2.90
254;DHT22;590;48.772;8.846;2022-07-12T13:53:45;27.70;2.10
254;DHT22;590;48.772;8.846;2022-07-12T13:56:13;27.70;2.60
254;DHT22;590;48.772;8.846;2022-07-12T13:58:41;27.70;3.20
254;DHT22;590;48.772;8.846;2022-07-12T14:01:09;27.70;3.20
254;DHT22;590;48.772;8.846;2022-07-12T14:03:39;27.70;3.20
254;DHT22;590;48.772;8.846;2022-07-12T14:06:07;27.70;3.20
254;DHT22;590;48.772;8.846;2022-07-12T14:08:35;27.70;2.10
254;DHT22;590;48.772;8.846;2022-07-12T14:11:04;27.50;1.70
254;DHT22;590;48.772;8.846;2022-07-12T14:13:32;27.40;2.70
254;DHT22;590;48.772;8.846;2022-07-12T14:16:00;27.20;2.80
254;DHT22;590;48.772;8.846;2022-07-12T14:18:28;27.10;3.20
254;DHT22;590;48.772;8.846;2022-07-12T14:20:57;27.10;2.80
254;DHT22;590;48.772;8.846;2022-07-12T14:23:25;27.00;3.20
254;DHT22;590;48.772;8.846;2022-07-12T14:25:53;27.00;2.90
254;DHT22;590;48.772;8.846;2022-07-12T14:28:21;27.10;2.40
254;DHT22;590;48.772;8.846;2022-07-12T14:30:49;27.10;2.00
254;DHT22;590;48.772;8.846;2022-07-12T14:33:17;27.10;2.70
254;DHT22;590;48.772;8.846;2022-07-12T14:35:45;27.20;3.40
254;DHT22;590;48.772;8.846;2022-07-12T14:38:15;27.20;2.70
254;DHT22;590;48.772;8.846;2022-07-12T14:40:43;27.20;2.70
254;DHT22;590;48.772;8.846;2022-07-12T14:43:11;27.20;2.30
254;DHT22;590;48.772;8.846;2022-07-12T14:45:39;27.20;2.20
254;DHT22;590;48.772;8.846;2022-07-12T14:48:08;27.00;1.90
254;DHT22;590;48.772;8.846;2022-07-12T14:50:37;27.00;2.80
254;DHT22;590;48.772;8.846;2022-07-12T14:53:05;26.80;2.30
254;DHT22;590;48.772;8.846;2022-07-12T14:55:35;26.80;2.90
254;DHT22;590;48.772;8.846;2022-07-12T14:58:03;26.80;3.10
254;DHT22;590;48.772;8.846;2022-07-12T15:00:33;26.80;2.50
254;DHT22;590;48.772;8.846;2022-07-12T15:03:01;26.90;2.00
254;DHT22;590;48.772;8.846;2022-07-12T15:05:30;26.90;1.80
254;DHT22;590;48.772;8.846;2022-07-12T15:07:58;26.90;1.60
254;DHT22;590;48.772;8.846;2022-07-12T15:10:26;26.90;1.40
254;DHT22;590;48.772;8.846;2022-07-12T15:12:55;26.80;1.20
254;DHT22;590;48.772;8.846;2022-07-12T15:15:44;26.70;1.00
254;DHT22;590;48.772;8.846;2022-07-12T15:18:12;26.70;1.20
254;DHT22;590;48.772;8.846;2022-07-12T15:20:40;26.70;1.40
254;DHT22;590;48.772;8.846;2022-07-12T15:23:08;26.60;1.00
254;DHT22;590;48.772;8.846;2022-07-12T15:25:36;26.50;1.10
254;DHT22;590;48.772;8.846;2022-07-12T15:28:05;26.50;2.00
254;DHT22;590;48.772;8.846;2022-07-12T15:30:33;26.50;1.80
254;DHT22;590;48.772;8.846;2022-07-12T15:33:02;26.50;1.50
254;DHT22;590;48.772;8.846;2022-07-12T15:35:30;26.50;2.50
254;DHT22;590;48.772;8.846;2022-07-12T15:37:58;26.40;1.00
254;DHT22;590;48.772;8.846;2022-07-12T15:40:26;26.40;1.80
254;DHT22;590;48.772;8.846;2022-07-12T15:42:54;26.40;1.10
254;DHT22;590;48.772;8.846;2022-07-12T15:45:24;26.40;2.00
254;DHT22;590;48.772;8.846;2022-07-12T15:47:52;26.40;2.80
254;DHT22;590;48.772;8.846;2022-07-12T15:50:20;26.30;2.40
254;DHT22;590;48.772;8.846;2022-07-12T15:52:48;26.40;3.20
254;DHT22;590;48.772;8.846;2022-07-12T15:55:34;26.30;1.30
254;DHT22;590;48.772;8.846;2022-07-12T15:58:03;26.20;1.20
254;DHT22;590;48.772;8.846;2022-07-12T16:00:32;26.20;1.80
254;DHT22;590;48.772;8.846;2022-07-12T16:03:00;26.20;2.40
254;DHT22;590;48.772;8.846;2022-07-12T16:05:30;26.20;2.10
254;DHT22;590;48.772;8.846;2022-07-12T16:07:58;26.20;2.40
254;DHT22;590;48.772;8.846;2022-07-12T16:10:28;26.20;3.10
254;DHT22;590;48.772;8.846;2022-07-12T16:12:56;26.30;2.50
254;DHT22;590;48.772;8.846;2022-07-12T16:15:24;26.30;2.80
254;DHT22;590;48.772;8.846;2022-07-12T16:17:54;26.40;2.20
254;DHT22;590;48.772;8.846;2022-07-12T16:20:22;26.40;2.30
254;DHT22;590;48.772;8.846;2022-07-12T16:22:50;26.30;2.50
254;DHT22;590;48.772;8.846;2022-07-12T16:25:19;26.30;2.20
254;DHT22;590;48.772;8.846;2022-07-12T16:27:47;26.30;2.10
254;DHT22;590;48.772;8.846;2022-07-12T16:30:15;26.30;2.60
254;DHT22;590;48.772;8.846;2022-07-12T16:32:44;26.20;2.00
254;DHT22;590;48.772;8.846;2022-07-12T16:35:14;26.20;2.70
254;DHT22;590;48.772;8.846;2022-07-12T16:37:42;26.20;2.60
254;DHT22;590;48.772;8.846;2022-07-12T16:40:13;26.20;2.20
254;DHT22;590;48.772;8.846;2022-07-12T16:42:41;26.10;2.50
254;DHT22;590;48.772;8.846;2022-07-12T16:45:10;26.10;3.00
254;DHT22;590;48.772;8.846;2022-07-12T16:47:39;26.10;3.00
254;DHT22;590;48.772;8.846;2022-07-12T16:50:09;26.10;3.40
254;DHT22;590;48.772;8.846;2022-07-12T16:52:38;26.00;3.10
254;DHT22;590;48.772;8.846;2022-07-12T16:55:07;26.00;3.70
254;DHT22;590;48.772;8.846;2022-07-12T16:57:36;25.90;2.90
254;DHT22;590;48.772;8.846;2022-07-12T17:00:07;26.00;3.00
254;DHT22;590;48.772;8.846;2022-07-12T17:02:37;26.00;3.00
254;DHT22;590;48.772;8.846;2022-07-12T17:05:06;26.00;3.70
254;DHT22;590;48.772;8.846;2022-07-12T17:07:35;26.10;4.00